createdAt,value
2023-03-29T00:00:30.481Z,89.50
2023-03-29T00:02:57.780Z,90.20
2023-03-29T00:05:25.635Z,91.10
2023-03-29T00:08:01.774Z,91.60
2023-03-29T00:10:28.906Z,92.10
2023-03-29T00:12:55.937Z,92.40
2023-03-29T00:15:23.314Z,92.70
2023-03-29T00:17:50.985Z,92.80
2023-03-29T00:20:18.107Z,92.60
2023-03-29T00:22:46.872Z,92.20
2023-03-29T00:25:14.293Z,91.90
2023-03-29T00:27:41.406Z,91.40
2023-03-29T00:30:10.255Z,91.00
2023-03-29T00:32:38.137Z,90.80
2023-03-29T00:35:06.559Z,90.60
2023-03-29T00:37:33.872Z,90.20
2023-03-29T00:40:01.288Z,89.80
2023-03-29T00:42:28.585Z,89.70
2023-03-29T00:45:13.698Z,89.70
2023-03-29T00:47:48.562Z,89.70
2023-03-29T00:50:17.084Z,89.80
2023-03-29T00:53:03.734Z,89.60
2023-03-29T00:55:54.154Z,89.40
2023-03-29T00:58:49.536Z,89.50
2023-03-29T01:01:26.104Z,89.90
2023-03-29T01:04:03.278Z,90.20
2023-03-29T01:06:34.511Z,90.60
2023-03-29T01:09:59.295Z,91.00
2023-03-29T01:12:32.867Z,91.30
2023-03-29T01:15:12.558Z,91.70
2023-03-29T01:17:43.610Z,92.00
2023-03-29T01:20:17.401Z,92.40
2023-03-29T01:23:03.758Z,92.50
2023-03-29T01:25:50.253Z,92.70
2023-03-29T01:28:26.715Z,93.20
2023-03-29T01:30:59.486Z,93.30
2023-03-29T01:33:33.740Z,93.30
2023-03-29T01:36:05.525Z,93.00
2023-03-29T01:38:52.257Z,92.90
2023-03-29T01:41:19.511Z,92.80
2023-03-29T01:43:52.749Z,93.30
2023-03-29T01:46:34.322Z,94.00
2023-03-29T01:49:13.592Z,94.60
2023-03-29T01:51:45.075Z,94.90
2023-03-29T01:54:35.469Z,95.20
2023-03-29T01:57:04.908Z,95.50
2023-03-29T01:59:36.064Z,95.40
2023-03-29T02:02:08.364Z,95.50
2023-03-29T02:04:39.963Z,95.50
2023-03-29T02:07:10.692Z,95.40
2023-03-29T02:09:39.667Z,95.40
2023-03-29T02:12:09.119Z,95.20
2023-03-29T02:14:36.560Z,95.50
2023-03-29T02:17:21.388Z,96.00
2023-03-29T02:19:59.435Z,96.20
2023-03-29T02:22:39.494Z,96.40
2023-03-29T02:25:09.504Z,96.30
2023-03-29T02:27:38.197Z,96.30
2023-03-29T02:30:09.952Z,96.20
2023-03-29T02:33:31.386Z,96.30
2023-03-29T02:36:03.752Z,96.60
2023-03-29T02:38:32.825Z,96.70
2023-03-29T02:41:00.721Z,96.90
2023-03-29T02:43:29.671Z,96.90
2023-03-29T02:45:57.154Z,97.10
2023-03-29T02:48:28.315Z,97.30
2023-03-29T02:51:01.342Z,97.50
2023-03-29T02:53:41.377Z,97.80
2023-03-29T02:56:08.822Z,97.90
2023-03-29T02:58:36.792Z,98.10
2023-03-29T03:01:06.965Z,98.00
2023-03-29T03:03:35.783Z,98.30
2023-03-29T03:06:03.571Z,98.40
2023-03-29T03:08:31.075Z,98.60
2023-03-29T03:10:59.864Z,98.70
2023-03-29T03:13:27.100Z,98.70
2023-03-29T03:15:54.249Z,98.90
2023-03-29T03:18:22.182Z,98.80
2023-03-29T03:21:02.166Z,99.00
2023-03-29T03:23:29.622Z,99.10
2023-03-29T03:25:57.094Z,99.40
2023-03-29T03:28:24.485Z,99.40
2023-03-29T03:30:51.693Z,99.40
2023-03-29T03:33:37.483Z,99.60
2023-03-29T03:36:26.180Z,99.70
2023-03-29T03:38:53.907Z,99.60
2023-03-29T03:41:21.479Z,99.30
2023-03-29T03:43:49.214Z,99.30
2023-03-29T03:46:17.336Z,99.20
2023-03-29T03:48:46.152Z,99.20
2023-03-29T03:52:27.125Z,99.10
2023-03-29T03:54:54.117Z,99.00
2023-03-29T03:57:44.057Z,99.00
2023-03-29T04:00:21.329Z,99.00
2023-03-29T04:03:08.847Z,98.90
2023-03-29T04:05:40.768Z,98.80
2023-03-29T04:08:08.926Z,98.70
2023-03-29T04:10:57.643Z,98.80
2023-03-29T04:13:30.200Z,99.00
2023-03-29T04:16:25.150Z,98.70
2023-03-29T04:18:52.591Z,98.40
2023-03-29T04:21:21.369Z,98.00
2023-03-29T04:23:48.895Z,97.80
2023-03-29T04:26:17.819Z,97.90
2023-03-29T04:28:48.018Z,97.70
2023-03-29T04:31:38.460Z,97.70
2023-03-29T04:34:25.797Z,97.60
2023-03-29T04:36:54.761Z,97.20
2023-03-29T04:39:32.045Z,96.90
2023-03-29T04:42:00.287Z,96.50
2023-03-29T04:44:29.597Z,96.30
2023-03-29T04:46:58.848Z,96.10
2023-03-29T04:49:41.410Z,95.70
2023-03-29T04:52:14.754Z,95.70
2023-03-29T04:54:41.807Z,95.30
2023-03-29T04:57:19.990Z,95.10
2023-03-29T04:59:56.477Z,94.70
2023-03-29T05:02:55.772Z,94.10
2023-03-29T05:05:23.000Z,93.70
2023-03-29T05:07:51.258Z,93.90
2023-03-29T05:10:23.554Z,93.90
2023-03-29T05:12:54.294Z,93.30
2023-03-29T05:15:23.100Z,93.30
2023-03-29T05:17:50.207Z,92.80
2023-03-29T05:20:17.681Z,92.20
2023-03-29T05:22:47.286Z,91.70
2023-03-29T05:25:27.436Z,91.60
2023-03-29T05:27:54.489Z,90.90
2023-03-29T05:30:22.550Z,90.80
2023-03-29T05:33:05.896Z,90.90
2023-03-29T05:35:36.057Z,90.30
2023-03-29T05:38:06.576Z,90.10
2023-03-29T05:40:33.881Z,90.10
2023-03-29T05:43:26.085Z,90.00
2023-03-29T05:45:54.478Z,89.80
2023-03-29T05:48:22.548Z,90.00
2023-03-29T05:50:52.389Z,90.50
2023-03-29T05:53:20.951Z,90.30
2023-03-29T05:55:48.498Z,90.10
2023-03-29T05:58:20.651Z,88.50
2023-03-29T06:00:49.982Z,88.70
2023-03-29T06:03:34.042Z,88.20
2023-03-29T06:06:02.768Z,87.30
2023-03-29T06:08:31.851Z,87.50
2023-03-29T06:11:26.470Z,87.50
2023-03-29T06:14:23.400Z,87.30
2023-03-29T06:16:56.726Z,87.60
2023-03-29T06:19:24.384Z,88.00
2023-03-29T06:21:53.364Z,88.00
2023-03-29T06:24:25.222Z,87.90
2023-03-29T06:26:59.248Z,87.90
2023-03-29T06:29:26.340Z,87.80
2023-03-29T06:31:54.500Z,87.50
2023-03-29T06:34:44.522Z,87.60
2023-03-29T06:37:29.829Z,87.70
2023-03-29T06:40:07.091Z,86.90
2023-03-29T06:43:14.616Z,87.50
2023-03-29T06:45:54.975Z,87.40
2023-03-29T06:48:32.722Z,87.30
2023-03-29T06:50:59.820Z,87.50
2023-03-29T06:53:29.460Z,85.90
2023-03-29T06:56:05.307Z,85.50
2023-03-29T06:58:41.171Z,86.20
2023-03-29T07:01:34.857Z,84.70
2023-03-29T07:04:15.142Z,84.30
2023-03-29T07:07:06.388Z,84.70
2023-03-29T07:09:36.103Z,84.20
2023-03-29T07:12:41.103Z,83.30
2023-03-29T07:15:09.678Z,83.60
2023-03-29T07:17:56.085Z,83.40
2023-03-29T07:20:25.394Z,82.60
2023-03-29T07:23:03.390Z,83.20
2023-03-29T07:25:30.956Z,82.80
2023-03-29T07:27:58.927Z,82.90
2023-03-29T07:30:30.967Z,82.90
2023-03-29T07:33:10.706Z,82.80
2023-03-29T07:35:56.327Z,83.30
2023-03-29T07:38:23.845Z,83.30
2023-03-29T07:41:03.367Z,82.60
2023-03-29T07:43:44.692Z,82.40
2023-03-29T07:46:14.285Z,82.10
2023-03-29T07:48:41.514Z,81.80
2023-03-29T07:51:10.910Z,82.20
2023-03-29T07:53:53.921Z,82.40
2023-03-29T07:56:40.526Z,82.40
2023-03-29T07:59:39.637Z,81.60
2023-03-29T08:02:14.133Z,81.70
2023-03-29T08:04:44.363Z,81.90
2023-03-29T08:07:21.391Z,82.40
2023-03-29T08:10:17.134Z,82.80
2023-03-29T08:13:09.714Z,83.30
2023-03-29T08:15:48.575Z,82.40
2023-03-29T08:18:26.629Z,82.60
2023-03-29T08:20:53.815Z,81.60
2023-03-29T08:23:21.308Z,82.10
2023-03-29T08:26:11.551Z,81.00
2023-03-29T08:28:39.695Z,81.70
2023-03-29T08:31:09.980Z,80.70
2023-03-29T08:33:39.903Z,80.10
2023-03-29T08:36:39.254Z,80.90
2023-03-29T08:39:14.353Z,79.90
2023-03-29T08:42:00.943Z,79.60
2023-03-29T08:45:08.381Z,79.80
2023-03-29T08:47:42.475Z,79.60
2023-03-29T08:50:14.836Z,78.50
2023-03-29T08:53:00.690Z,79.20
2023-03-29T08:55:48.648Z,80.10
2023-03-29T08:58:37.851Z,80.60
2023-03-29T09:01:08.771Z,80.50
2023-03-29T09:04:09.882Z,79.70
2023-03-29T09:06:49.797Z,78.20
2023-03-29T09:09:28.627Z,77.20
2023-03-29T09:12:27.594Z,77.50
2023-03-29T09:14:54.592Z,77.70
2023-03-29T09:17:27.510Z,79.00
2023-03-29T09:20:32.241Z,77.70
2023-03-29T09:22:59.875Z,78.20
2023-03-29T09:25:56.650Z,76.60
2023-03-29T09:28:54.812Z,76.40
2023-03-29T09:31:26.759Z,77.20
2023-03-29T09:34:01.830Z,76.40
2023-03-29T09:36:53.421Z,76.60
2023-03-29T09:39:22.348Z,76.70
2023-03-29T09:41:59.932Z,75.30
2023-03-29T09:44:33.192Z,74.60
2023-03-29T09:47:20.126Z,75.20
2023-03-29T09:49:51.548Z,75.20
2023-03-29T09:52:20.991Z,74.60
2023-03-29T09:55:02.177Z,75.00
2023-03-29T09:57:47.453Z,73.60
2023-03-29T10:00:17.089Z,74.40
2023-03-29T10:03:45.602Z,73.80
2023-03-29T10:06:17.214Z,74.40
2023-03-29T10:09:12.797Z,72.00
2023-03-29T10:11:47.879Z,71.40
2023-03-29T10:14:23.033Z,72.00
2023-03-29T10:16:56.555Z,71.10
2023-03-29T10:19:27.226Z,71.80
2023-03-29T10:21:55.566Z,72.70
2023-03-29T10:24:24.828Z,71.90
2023-03-29T10:26:58.533Z,71.90
2023-03-29T10:29:27.811Z,71.50
2023-03-29T10:31:55.206Z,71.40
2023-03-29T10:34:26.291Z,71.40
2023-03-29T10:37:01.319Z,71.80
2023-03-29T10:39:33.851Z,72.30
2023-03-29T10:42:04.291Z,70.50
2023-03-29T10:44:34.576Z,71.20
2023-03-29T10:47:09.252Z,71.50
2023-03-29T10:49:47.344Z,71.30
2023-03-29T10:52:17.419Z,72.50
2023-03-29T10:54:45.780Z,71.30
2023-03-29T10:57:25.505Z,69.50
2023-03-29T11:00:22.849Z,69.40
2023-03-29T11:03:12.010Z,67.70
2023-03-29T11:06:12.074Z,68.20
2023-03-29T11:09:02.171Z,68.30
2023-03-29T11:12:04.487Z,68.50
2023-03-29T11:15:02.078Z,68.10
2023-03-29T11:17:53.489Z,67.20
2023-03-29T11:20:31.991Z,66.50
2023-03-29T11:23:34.492Z,66.60
2023-03-29T11:26:19.000Z,67.00
2023-03-29T11:29:14.899Z,67.50
2023-03-29T11:31:59.458Z,66.20
2023-03-29T11:34:45.849Z,65.60
2023-03-29T11:37:30.648Z,64.30
2023-03-29T11:40:09.648Z,63.40
2023-03-29T11:42:41.928Z,63.70
2023-03-29T11:45:17.552Z,65.50
2023-03-29T11:47:47.706Z,64.60
2023-03-29T11:50:23.628Z,64.80
2023-03-29T11:53:02.272Z,62.70
2023-03-29T11:55:33.758Z,61.20
2023-03-29T11:58:15.981Z,60.70
2023-03-29T12:00:50.969Z,59.20
2023-03-29T12:03:37.223Z,61.00
2023-03-29T12:06:14.108Z,58.70
2023-03-29T12:08:56.088Z,56.30
2023-03-29T12:11:27.449Z,58.10
2023-03-29T12:14:11.078Z,57.20
2023-03-29T12:16:54.774Z,57.80
2023-03-29T12:19:39.671Z,56.90
2023-03-29T12:22:11.234Z,57.10
2023-03-29T12:24:44.518Z,58.20
2023-03-29T12:27:36.086Z,58.10
2023-03-29T12:30:28.978Z,56.40
2023-03-29T12:33:05.990Z,57.30
2023-03-29T12:36:24.664Z,57.00
2023-03-29T12:39:18.763Z,57.30
2023-03-29T12:42:13.494Z,56.40
2023-03-29T12:45:00.779Z,56.50
2023-03-29T12:47:39.797Z,54.30
2023-03-29T12:50:07.503Z,55.10
2023-03-29T12:52:36.231Z,56.00
2023-03-29T12:55:18.120Z,56.20
2023-03-29T12:58:01.108Z,55.80
2023-03-29T13:00:42.739Z,55.10
2023-03-29T13:03:29.413Z,56.00
2023-03-29T13:10:30.360Z,55.90
2023-03-29T13:12:58.105Z,55.40
2023-03-29T13:15:27.688Z,55.90
2023-03-29T13:18:36.338Z,56.90
2023-03-29T13:21:29.341Z,56.00
2023-03-29T13:24:00.158Z,56.50
2023-03-29T13:26:54.254Z,55.80
2023-03-29T13:29:37.224Z,57.30
2023-03-29T13:32:16.873Z,57.40
2023-03-29T13:34:53.405Z,57.50
2023-03-29T13:37:29.283Z,57.60
2023-03-29T13:39:57.078Z,57.40
2023-03-29T13:42:33.237Z,56.90
2023-03-29T13:45:28.003Z,57.60
2023-03-29T13:48:33.729Z,57.20
2023-03-29T13:51:14.076Z,57.30
2023-03-29T13:53:53.002Z,56.90
2023-03-29T13:56:25.741Z,58.10
2023-03-29T13:59:23.028Z,57.40
2023-03-29T14:01:57.986Z,55.60
2023-03-29T14:04:30.384Z,56.40
2023-03-29T14:06:58.008Z,56.10
2023-03-29T14:09:30.249Z,56.30
2023-03-29T14:12:00.117Z,55.60
2023-03-29T14:14:28.320Z,56.40
2023-03-29T14:16:56.899Z,56.30
2023-03-29T14:19:36.389Z,57.60
2023-03-29T14:22:09.523Z,57.00
2023-03-29T14:24:48.180Z,56.90
2023-03-29T14:27:16.681Z,56.70
2023-03-29T14:29:47.597Z,58.00
2023-03-29T14:32:17.137Z,58.70
2023-03-29T14:34:48.814Z,57.60
2023-03-29T14:37:29.891Z,56.50
2023-03-29T14:39:59.269Z,56.50
2023-03-29T14:42:28.411Z,56.90
2023-03-29T14:45:16.289Z,56.60
2023-03-29T14:47:45.547Z,55.30
2023-03-29T14:50:27.559Z,54.50
2023-03-29T14:52:56.467Z,56.60
2023-03-29T14:55:24.932Z,55.30
2023-03-29T14:57:55.320Z,56.20
2023-03-29T15:00:38.008Z,56.80
2023-03-29T15:03:13.553Z,56.70
2023-03-29T15:05:44.114Z,57.00
2023-03-29T15:08:18.519Z,57.50
2023-03-29T15:10:45.894Z,58.30
2023-03-29T15:13:19.986Z,57.60
2023-03-29T15:15:51.208Z,57.00
2023-03-29T15:18:19.121Z,58.00
2023-03-29T15:20:46.479Z,58.90
2023-03-29T15:23:16.515Z,58.10
2023-03-29T15:25:49.126Z,57.60
2023-03-29T15:28:31.462Z,59.10
2023-03-29T15:31:13.776Z,60.00
2023-03-29T15:33:42.197Z,59.40
2023-03-29T15:36:11.611Z,60.90
2023-03-29T15:38:44.753Z,60.10
2023-03-29T15:41:14.542Z,60.70
2023-03-29T15:43:42.481Z,61.70
2023-03-29T15:46:14.800Z,62.00
2023-03-29T15:48:42.247Z,63.00
2023-03-29T15:51:15.067Z,63.60
2023-03-29T15:53:42.114Z,63.20
2023-03-29T15:56:11.701Z,63.60
2023-03-29T15:58:41.873Z,63.50
2023-03-29T16:02:16.921Z,64.30
2023-03-29T16:04:44.934Z,65.70
2023-03-29T16:07:15.730Z,67.10
2023-03-29T16:09:43.934Z,67.60
2023-03-29T16:12:11.184Z,69.00
2023-03-29T16:14:38.889Z,69.20
2023-03-29T16:17:06.275Z,70.30
2023-03-29T16:19:34.037Z,70.80
2023-03-29T16:22:07.161Z,71.70
2023-03-29T16:24:36.068Z,72.30
2023-03-29T16:27:04.196Z,71.90
2023-03-29T16:29:31.944Z,71.60
2023-03-29T16:31:59.877Z,71.90
2023-03-29T16:34:27.087Z,72.00
2023-03-29T16:36:54.561Z,72.40
2023-03-29T16:39:21.821Z,72.10
2023-03-29T16:41:50.395Z,71.60
2023-03-29T16:44:23.014Z,71.50
2023-03-29T16:46:53.948Z,71.70
2023-03-29T16:49:21.707Z,71.40
2023-03-29T16:51:48.771Z,71.70
2023-03-29T16:54:17.350Z,72.10
2023-03-29T16:56:44.660Z,72.00
2023-03-29T16:59:12.364Z,71.70
2023-03-29T17:01:40.744Z,71.70
2023-03-29T17:04:08.665Z,72.10
2023-03-29T17:06:36.107Z,72.90
2023-03-29T17:09:05.242Z,72.90
2023-03-29T17:11:32.624Z,73.20
2023-03-29T17:14:00.256Z,73.70
2023-03-29T17:16:29.234Z,74.10
2023-03-29T17:19:00.523Z,74.40
2023-03-29T17:21:29.009Z,74.80
2023-03-29T17:23:56.097Z,75.10
2023-03-29T17:26:23.258Z,75.60
2023-03-29T17:28:50.485Z,76.10
2023-03-29T17:31:19.508Z,76.30
2023-03-29T17:33:47.559Z,76.50
2023-03-29T17:36:14.759Z,76.80
2023-03-29T17:38:43.062Z,76.90
2023-03-29T17:41:10.238Z,76.70
2023-03-29T17:43:37.428Z,76.70
2023-03-29T17:46:04.965Z,76.90
2023-03-29T17:48:33.086Z,77.20
2023-03-29T17:51:03.252Z,77.30
2023-03-29T17:53:30.611Z,77.10
2023-03-29T17:55:58.386Z,76.90
2023-03-29T17:58:46.490Z,76.90
2023-03-29T18:01:30.089Z,76.80
2023-03-29T18:03:57.224Z,76.40
2023-03-29T18:06:24.508Z,76.20
2023-03-29T18:08:53.246Z,75.90
2023-03-29T18:11:24.930Z,75.80
2023-03-29T18:13:53.580Z,76.00
2023-03-29T18:16:22.031Z,75.90
2023-03-29T18:18:49.230Z,75.70
2023-03-29T18:21:17.545Z,75.80
2023-03-29T18:23:47.221Z,75.80
2023-03-29T18:26:15.964Z,76.00
2023-03-29T18:28:46.721Z,75.90
2023-03-29T18:31:14.318Z,75.90
2023-03-29T18:33:41.427Z,76.00
2023-03-29T18:36:12.699Z,75.90
2023-03-29T18:38:43.310Z,75.80
2023-03-29T18:41:12.211Z,76.10
2023-03-29T18:43:40.399Z,75.90
2023-03-29T18:46:08.364Z,76.40
2023-03-29T18:48:42.163Z,76.20
2023-03-29T18:51:11.097Z,76.30
2023-03-29T18:53:39.359Z,76.20
2023-03-29T18:56:08.067Z,76.30
2023-03-29T18:58:36.343Z,76.20
2023-03-29T19:01:06.009Z,76.20
2023-03-29T19:03:34.659Z,76.30
2023-03-29T19:06:02.893Z,76.10
2023-03-29T19:08:30.333Z,75.90
2023-03-29T19:11:05.848Z,75.50
2023-03-29T19:17:52.646Z,75.30
2023-03-29T19:20:21.248Z,75.00
2023-03-29T19:22:48.220Z,75.00
2023-03-29T19:25:15.307Z,74.70
2023-03-29T19:27:42.324Z,74.90
2023-03-29T19:30:09.927Z,74.60
2023-03-29T19:32:37.036Z,74.70
2023-03-29T19:35:04.494Z,74.80
2023-03-29T19:37:31.481Z,74.50
2023-03-29T19:39:58.541Z,74.50
2023-03-29T19:42:25.710Z,74.30
2023-03-29T19:44:52.768Z,74.60
2023-03-29T19:47:19.755Z,74.50
2023-03-29T19:49:46.760Z,74.30
2023-03-29T19:52:13.749Z,74.30
2023-03-29T19:54:40.789Z,74.30
2023-03-29T19:57:09.325Z,73.90
2023-03-29T19:59:37.899Z,73.80
2023-03-29T20:02:05.265Z,73.50
2023-03-29T20:04:33.501Z,73.30
2023-03-29T20:07:00.669Z,72.80
2023-03-29T20:09:27.712Z,72.70
2023-03-29T20:11:54.797Z,72.50
2023-03-29T20:14:22.012Z,72.00
2023-03-29T20:16:52.157Z,71.70
2023-03-29T20:19:24.107Z,71.70
2023-03-29T20:21:58.250Z,71.30
2023-03-29T20:24:26.524Z,71.40
2023-03-29T20:26:53.906Z,71.30
2023-03-29T20:29:21.355Z,71.00
2023-03-29T20:31:48.997Z,71.10
2023-03-29T20:34:18.433Z,70.90
2023-03-29T20:36:47.093Z,70.70
2023-03-29T20:39:17.797Z,70.70
2023-03-29T20:41:47.802Z,70.40
2023-03-29T20:44:18.577Z,70.40
2023-03-29T20:47:06.693Z,70.20
2023-03-29T20:49:39.295Z,70.10
2023-03-29T20:52:15.558Z,70.30
2023-03-29T20:54:45.834Z,70.20
2023-03-29T20:57:16.110Z,70.00
2023-03-29T20:59:44.496Z,70.00
2023-03-29T21:02:19.017Z,69.60
2023-03-29T21:04:49.913Z,69.70
2023-03-29T21:07:17.311Z,69.80
2023-03-29T21:09:44.497Z,69.90
2023-03-29T21:12:11.998Z,70.00
2023-03-29T21:14:39.680Z,69.90
2023-03-29T21:17:06.665Z,69.90
2023-03-29T21:19:33.816Z,69.80
2023-03-29T21:22:01.266Z,69.70
2023-03-29T21:24:28.363Z,69.30
2023-03-29T21:26:55.457Z,69.20
2023-03-29T21:29:22.431Z,69.10
2023-03-29T21:31:49.541Z,68.60
2023-03-29T21:34:16.608Z,68.50
2023-03-29T21:36:43.624Z,68.50
2023-03-29T21:39:10.665Z,68.30
2023-03-29T21:41:37.713Z,67.70
2023-03-29T21:44:04.791Z,67.60
2023-03-29T21:46:31.854Z,67.50
2023-03-29T21:49:59.631Z,67.10
2023-03-29T21:52:26.579Z,66.80
2023-03-29T21:54:53.579Z,66.80
2023-03-29T21:57:20.850Z,66.50
2023-03-29T21:59:47.902Z,66.20
2023-03-29T22:02:14.963Z,66.20
2023-03-29T22:04:42.036Z,65.80
2023-03-29T22:07:10.749Z,65.70
2023-03-29T22:09:37.944Z,65.40
2023-03-29T22:12:05.252Z,65.40
2023-03-29T22:14:36.726Z,65.20
2023-03-29T22:17:06.246Z,65.40
2023-03-29T22:19:39.282Z,64.80
2023-03-29T22:22:07.368Z,64.80
2023-03-29T22:24:34.375Z,64.40
2023-03-29T22:27:01.637Z,64.40
2023-03-29T22:29:28.755Z,64.30
2023-03-29T22:31:55.992Z,64.40
2023-03-29T22:34:24.236Z,64.40
2023-03-29T22:36:51.715Z,64.20
2023-03-29T22:39:18.808Z,64.30
2023-03-29T22:41:46.073Z,64.30
2023-03-29T22:44:13.119Z,64.30
2023-03-29T22:46:40.096Z,64.10
2023-03-29T22:49:07.245Z,64.20
2023-03-29T22:51:34.243Z,64.30
2023-03-29T22:54:01.531Z,64.20
2023-03-29T22:56:28.604Z,64.60
2023-03-29T22:58:55.764Z,64.40
2023-03-29T23:01:22.811Z,64.70
2023-03-29T23:03:49.851Z,65.00
2023-03-29T23:06:16.849Z,64.90
2023-03-29T23:08:43.870Z,64.90
2023-03-29T23:11:11.649Z,65.00
2023-03-29T23:13:38.869Z,65.40
2023-03-29T23:16:06.401Z,65.40
2023-03-29T23:18:37.952Z,65.70
2023-03-29T23:22:02.581Z,65.70
2023-03-29T23:24:30.515Z,65.90
2023-03-29T23:26:57.705Z,65.90
2023-03-29T23:29:26.403Z,65.90
2023-03-29T23:31:53.943Z,66.10
2023-03-29T23:34:21.053Z,66.10
2023-03-29T23:36:48.151Z,66.40
2023-03-29T23:39:16.183Z,66.60
2023-03-29T23:41:43.154Z,66.50
2023-03-29T23:44:10.371Z,66.90
2023-03-29T23:46:37.382Z,66.80
2023-03-29T23:49:04.412Z,66.70
2023-03-29T23:51:31.464Z,66.90
2023-03-29T23:53:58.501Z,66.90
2023-03-29T23:56:25.493Z,67.10
2023-03-29T23:58:52.527Z,67.10
